Time;durP1;ratioP1;P1;durP2;ratioP2;P2;SDS_P1;SDS_P2;PMS_P1;PMS_P2;Temp;Humidity;BMP_temperature;BMP_pressure;BME280_temperature;BME280_humidity;BME280_pressure;Samples;Min_cycle;Max_cycle;Signal;HPM_P1;HPM_P2
2022/12/14 00:00:46;;;;;;;40.20;20.63;;;;;;;-6.38;91.99;100963.47;5002797;28;20186;-70
2022/12/14 00:03:12;;;;;;;39.87;22.17;;;;;;;-6.35;91.82;100958.75;5007700;28;20643;-70
2022/12/14 00:05:38;;;;;;;47.27;22.20;;;;;;;-6.35;91.92;100957.91;5006838;28;20450;-70
2022/12/14 00:08:04;;;;;;;40.97;20.67;;;;;;;-6.39;91.78;100959.25;5004377;28;20835;-70
2022/12/14 00:10:32;;;;;;;38.90;20.43;;;;;;;-6.38;92.58;100955.13;5006230;28;20683;-69
2022/12/14 00:12:57;;;;;;;44.03;21.13;;;;;;;-6.39;92.61;100955.88;5006514;28;20290;-70
2022/12/14 00:15:23;;;;;;;40.93;21.60;;;;;;;-6.43;92.13;100958.84;5004269;28;20465;-69
2022/12/14 00:17:48;;;;;;;44.30;21.90;;;;;;;-6.39;92.75;100955.88;4995800;28;20274;-69
2022/12/14 00:20:14;;;;;;;40.47;20.30;;;;;;;-6.37;92.31;100952.78;5008126;28;20207;-70
2022/12/14 00:22:39;;;;;;;41.03;20.27;;;;;;;-6.35;92.25;100952.91;5009711;28;20222;-70
2022/12/14 00:25:05;;;;;;;41.43;19.97;;;;;;;-6.35;92.67;100950.41;4997926;28;20199;-70
2022/12/14 00:27:31;;;;;;;39.40;20.80;;;;;;;-6.33;92.83;100942.34;4977361;28;1146697;-70
2022/12/14 00:29:56;;;;;;;44.67;20.67;;;;;;;-6.33;92.92;100934.88;5000236;28;20305;-70
2022/12/14 00:32:22;;;;;;;42.30;20.13;;;;;;;-6.38;92.87;100948.53;5004705;28;20243;-69
2022/12/14 00:34:47;;;;;;;42.83;20.57;;;;;;;-6.39;93.46;100943.44;5003701;28;20205;-69
2022/12/14 00:37:12;;;;;;;41.80;20.37;;;;;;;-6.40;93.32;100936.72;5007042;28;20596;-69
2022/12/14 00:39:38;;;;;;;43.43;21.53;;;;;;;-6.33;93.21;100933.97;5011467;28;20207;-69
2022/12/14 00:42:03;;;;;;;42.00;20.07;;;;;;;-6.22;94.25;100933.31;5006015;28;20216;-69
2022/12/14 00:44:28;;;;;;;42.33;21.17;;;;;;;-6.25;94.63;100925.56;5007291;28;20948;-69
2022/12/14 00:46:54;;;;;;;48.37;21.57;;;;;;;-6.27;94.61;100932.03;5002802;28;20198;-69
2022/12/14 00:49:19;;;;;;;43.47;22.57;;;;;;;-6.29;94.54;100926.94;5008196;28;20242;-70
2022/12/14 00:51:45;;;;;;;40.60;21.53;;;;;;;-6.27;94.45;100924.56;5006182;28;20333;-69
2022/12/14 00:54:10;;;;;;;44.70;21.90;;;;;;;-6.34;94.31;100930.66;5006511;28;20579;-69
2022/12/14 00:56:36;;;;;;;38.30;20.07;;;;;;;-6.40;94.03;100922.63;5003633;28;20501;-69
2022/12/14 00:59:01;;;;;;;40.33;20.80;;;;;;;-6.41;93.59;100922.53;5008617;28;20337;-69
2022/12/14 01:01:26;;;;;;;39.93;19.43;;;;;;;-6.46;92.88;100917.13;5009504;28;20645;-69
2022/12/14 01:04:15;;;;;;;43.77;20.10;;;;;;;-6.53;92.85;100922.34;5009642;28;20205;-69
2022/12/14 01:06:37;;;;;;;42.10;20.93;;;;;;;-6.52;92.56;100925.69;5009359;28;20206;-69
2022/12/14 01:09:03;;;;;;;40.53;20.00;;;;;;;-6.53;92.51;100924.81;5004372;28;20495;-69
2022/12/14 01:11:28;;;;;;;39.43;19.83;;;;;;;-6.56;92.17;100931.13;5008428;28;20207;-69
2022/12/14 01:13:54;;;;;;;42.40;20.60;;;;;;;-6.58;92.09;100931.00;5001594;28;21053;-70
2022/12/14 01:16:20;;;;;;;44.33;20.43;;;;;;;-6.58;92.11;100922.66;5002919;28;20675;-70
2022/12/14 01:18:45;;;;;;;46.30;20.60;;;;;;;-6.61;91.78;100928.25;5003047;28;20499;-70
2022/12/14 01:21:17;;;;;;;43.80;19.87;;;;;;;-6.59;92.25;100925.91;5002633;28;20800;-70
2022/12/14 01:23:43;;;;;;;40.27;19.73;;;;;;;-6.57;92.16;100925.28;5013415;28;20211;-70
2022/12/14 01:26:10;;;;;;;42.50;20.00;;;;;;;-6.56;92.03;100929.53;5003797;28;20507;-70
2022/12/14 01:28:35;;;;;;;35.33;18.63;;;;;;;-6.59;92.06;100925.91;5018411;28;20529;-69
2022/12/14 01:31:11;;;;;;;39.40;19.30;;;;;;;-6.56;91.86;100929.53;5006117;28;20939;-69
2022/12/14 01:33:37;;;;;;;41.30;21.03;;;;;;;-6.56;92.34;100928.63;5004394;28;20238;-69
2022/12/14 01:36:04;;;;;;;42.77;20.83;;;;;;;-6.57;92.28;100919.44;5004365;28;20993;-69
2022/12/14 01:38:30;;;;;;;42.97;20.03;;;;;;;-6.60;92.45;100916.66;5005937;28;20458;-70
2022/12/14 01:40:56;;;;;;;41.90;21.40;;;;;;;-6.61;92.07;100913.31;5005811;28;20814;-69
2022/12/14 01:43:22;;;;;;;40.10;20.20;;;;;;;-6.62;92.82;100911.59;5007697;28;20591;-69
2022/12/14 01:45:47;;;;;;;43.90;19.43;;;;;;;-6.51;92.63;100910.00;5002780;28;20450;-70
2022/12/14 01:48:13;;;;;;;43.77;21.07;;;;;;;-6.43;93.70;100906.56;5004748;28;20202;-70
2022/12/14 01:50:43;;;;;;;41.13;21.23;;;;;;;-6.35;95.00;100903.97;5008763;28;20631;-70
2022/12/14 01:53:13;;;;;;;41.50;20.30;;;;;;;-6.38;94.80;100902.84;5009376;28;20210;-70
2022/12/14 01:55:42;;;;;;;41.37;21.23;;;;;;;-6.39;95.27;100903.59;5002556;28;20458;-69
2022/12/14 01:58:25;;;;;;;38.13;20.23;;;;;;;-6.40;95.62;100901.84;5002509;28;20488;-69
2022/12/14 02:00:56;;;;;;;45.37;21.77;;;;;;;-6.36;95.45;100896.41;5003284;28;20561;-69
2022/12/14 02:03:43;;;;;;;41.07;20.37;;;;;;;-6.40;95.26;100892.75;5001188;28;20490;-69
2022/12/14 02:06:16;;;;;;;40.90;20.13;;;;;;;-6.45;95.73;100893.13;5000716;28;20847;-70
2022/12/14 02:08:44;;;;;;;40.57;20.00;;;;;;;-6.47;95.66;100902.94;5007153;28;20456;-69
2022/12/14 02:11:09;;;;;;;39.07;20.13;;;;;;;-6.50;94.91;100896.84;5000332;28;20461;-70
2022/12/14 02:13:39;;;;;;;44.87;21.13;;;;;;;-6.49;95.00;100893.59;5003807;28;20438;-70
2022/12/14 02:16:05;;;;;;;43.80;21.07;;;;;;;-6.46;94.96;100887.25;5001304;28;20254;-69
2022/12/14 02:18:31;;;;;;;43.73;21.47;;;;;;;-6.43;94.33;100882.56;5009478;28;20836;-69
2022/12/14 02:21:20;;;;;;;44.03;21.90;;;;;;;-6.42;94.40;100886.78;5002249;23;20251;-73
2022/12/14 02:24:18;;;;;;;43.00;21.60;;;;;;;-6.40;95.16;100879.44;4974727;28;20470;-72
2022/12/14 02:26:52;;;;;;;44.03;21.17;;;;;;;-6.35;95.30;100881.56;4936738;28;20685;-72
2022/12/14 02:29:32;;;;;;;46.10;21.50;;;;;;;-6.29;95.34;100881.22;4977323;28;20454;-73
2022/12/14 02:32:17;;;;;;;47.23;22.73;;;;;;;-6.36;95.25;100888.94;5001509;28;20438;-73
2022/12/14 02:35:02;;;;;;;48.10;21.73;;;;;;;-6.40;95.26;100887.78;5004834;28;20442;-73
2022/12/14 02:37:42;;;;;;;43.03;21.40;;;;;;;-6.37;95.62;100883.06;5008649;28;20449;-73
2022/12/14 02:40:13;;;;;;;41.13;20.40;;;;;;;-6.42;95.07;100875.94;4984622;28;20558;-73
2022/12/14 02:42:48;;;;;;;44.70;20.70;;;;;;;-6.43;94.91;100881.66;5002995;28;20493;-73
2022/12/14 02:45:26;;;;;;;42.03;21.20;;;;;;;-6.49;94.93;100881.16;4987688;28;20549;-73
2022/12/14 02:47:58;;;;;;;42.63;20.97;;;;;;;-6.48;94.58;100873.81;5006046;28;20577;-73
2022/12/14 02:50:29;;;;;;;47.73;21.67;;;;;;;-6.41;94.55;100873.59;4987711;28;21197;-73
2022/12/14 02:53:13;;;;;;;46.20;21.47;;;;;;;-6.42;94.56;100870.97;5005978;28;20448;-73
2022/12/14 02:55:49;;;;;;;39.43;19.93;;;;;;;-6.48;94.28;100861.38;4999867;28;20438;-73
2022/12/14 02:58:29;;;;;;;41.87;20.80;;;;;;;-6.46;94.65;100862.38;5003860;28;20527;-73
2022/12/14 03:00:55;;;;;;;44.97;21.83;;;;;;;-6.43;94.38;100856.78;5003894;28;20478;-72
2022/12/14 03:03:21;;;;;;;40.60;20.33;;;;;;;-6.36;94.89;100854.06;4988523;28;20484;-72
2022/12/14 03:06:13;;;;;;;44.87;21.50;;;;;;;-6.40;94.92;100847.94;5002941;28;20450;-73
2022/12/14 03:08:42;;;;;;;44.67;21.27;;;;;;;-6.41;95.48;100845.34;4986829;28;20221;-72
2022/12/14 03:11:10;;;;;;;40.27;21.13;;;;;;;-6.42;95.56;100841.97;5001859;28;20449;-72
2022/12/14 03:13:57;;;;;;;46.60;22.97;;;;;;;-6.40;95.48;100832.16;5004292;28;20456;-72
2022/12/14 03:16:45;;;;;;;44.47;21.63;;;;;;;-6.41;95.15;100830.41;5004151;28;20445;-72
2022/12/14 03:19:29;;;;;;;45.30;23.33;;;;;;;-6.50;95.57;100835.47;5002529;28;20588;-72
2022/12/14 03:22:00;;;;;;;48.47;21.67;;;;;;;-6.52;95.32;100831.09;5001598;28;21021;-72
2022/12/14 03:24:37;;;;;;;37.33;20.83;;;;;;;-6.51;94.84;100825.38;5002936;28;20458;-72
2022/12/14 03:27:12;;;;;;;40.63;21.03;;;;;;;-6.60;94.74;100824.59;4988488;28;20859;-72
2022/12/14 03:29:43;;;;;;;41.03;20.93;;;;;;;-6.66;94.34;100826.56;5000123;28;20992;-72
2022/12/14 03:32:12;;;;;;;41.73;19.90;;;;;;;-6.72;93.78;100829.38;5002922;28;20528;-72
2022/12/14 03:34:51;;;;;;;42.40;20.63;;;;;;;-6.75;93.59;100823.28;4987191;28;20861;-72
2022/12/14 03:37:28;;;;;;;39.40;19.20;;;;;;;-6.78;93.31;100823.03;5005485;28;20805;-72
2022/12/14 03:39:54;;;;;;;43.07;20.67;;;;;;;-6.77;93.05;100819.81;5007331;28;20469;-72
2022/12/14 03:42:27;;;;;;;43.33;20.80;;;;;;;-6.82;93.14;100814.41;4987816;28;20531;-70
2022/12/14 03:45:02;;;;;;;41.97;19.63;;;;;;;-6.81;92.63;100808.69;5002086;28;20627;-72
2022/12/14 03:47:47;;;;;;;46.60;20.90;;;;;;;-6.82;93.37;100816.91;5002743;28;20809;-72
2022/12/14 03:51:05;;;;;;;43.67;20.40;;;;;;;-6.83;93.58;100809.31;5002352;28;20471;-72
2022/12/14 03:53:48;;;;;;;43.80;20.97;;;;;;;-6.88;93.69;100811.41;4969851;28;20460;-73
2022/12/14 03:56:36;;;;;;;43.20;20.30;;;;;;;-6.91;93.50;100801.19;4989342;28;20913;-73
2022/12/14 03:59:09;;;;;;;40.60;19.30;;;;;;;-6.90;93.33;100805.44;5003989;28;20526;-72
2022/12/14 04:01:49;;;;;;;44.20;20.23;;;;;;;-6.94;93.40;100792.59;5002795;28;20482;-72
2022/12/14 04:04:23;;;;;;;39.37;20.17;;;;;;;-6.91;93.77;100788.75;5001996;28;20457;-72
2022/12/14 04:07:11;;;;;;;44.20;21.43;;;;;;;-6.88;94.14;100793.13;5007242;28;20464;-73
2022/12/14 04:09:57;;;;;;;38.57;19.20;;;;;;;-6.95;94.01;100785.88;4988585;28;20474;-71
2022/12/14 04:21:18;;;;;;;43.93;20.33;;;;;;;-7.06;93.88;100779.97;5004044;28;20519;-72
2022/12/14 04:26:41;;;;;;;40.27;19.83;;;;;;;-7.16;93.08;100781.53;5010745;28;20914;-72
2022/12/14 04:32:09;;;;;;;41.60;19.93;;;;;;;-7.17;93.11;100768.25;5007217;28;20949;-73
2022/12/14 04:34:37;;;;;;;41.17;20.40;;;;;;;-7.15;94.22;100765.88;5008693;28;20543;-72
2022/12/14 04:37:09;;;;;;;46.73;20.07;;;;;;;-7.20;94.20;100764.59;4992120;28;20449;-72
2022/12/14 04:39:45;;;;;;;43.57;21.87;;;;;;;-7.20;94.52;100767.97;5008297;28;21063;-72
2022/12/14 04:42:14;;;;;;;38.47;20.10;;;;;;;-7.23;94.48;100757.75;4974761;28;20463;-73
2022/12/14 04:44:54;;;;;;;43.90;20.37;;;;;;;-7.23;94.13;100759.38;5005480;28;20458;-72
2022/12/14 04:47:27;;;;;;;44.47;20.87;;;;;;;-7.20;94.24;100755.53;4990882;28;20484;-72
2022/12/14 04:50:00;;;;;;;45.50;21.37;;;;;;;-7.17;94.34;100754.94;4992188;28;20540;-73
2022/12/14 04:52:39;;;;;;;44.47;21.63;;;;;;;-7.20;94.64;100754.66;5004846;28;20474;-72
2022/12/14 04:55:17;;;;;;;40.53;20.90;;;;;;;-7.21;94.27;100753.81;5005681;28;20467;-73
2022/12/14 04:57:51;;;;;;;39.30;19.50;;;;;;;-7.26;94.28;100752.53;4988283;28;20485;-73
2022/12/14 05:00:17;;;;;;;43.20;20.27;;;;;;;-7.32;93.72;100754.47;4988264;28;20481;-72
2022/12/14 05:03:04;;;;;;;44.67;21.60;;;;;;;-7.41;93.38;100753.66;4992535;28;20539;-72
2022/12/14 05:05:35;;;;;;;40.00;19.60;;;;;;;-7.42;93.34;100753.56;5005976;28;20217;-73
2022/12/14 05:08:24;;;;;;;36.13;17.90;;;;;;;-7.51;92.68;100762.69;5006031;28;20471;-72
2022/12/14 05:10:55;;;;;;;41.90;19.77;;;;;;;-7.56;92.00;100752.34;5002949;28;20797;-73
2022/12/14 05:13:44;;;;;;;37.90;18.57;;;;;;;-7.55;91.80;100748.25;5005679;28;20608;-72
2022/12/14 05:16:11;;;;;;;38.73;20.10;;;;;;;-7.62;91.52;100746.84;4986699;28;20460;-72
2022/12/14 05:18:36;;;;;;;40.87;20.37;;;;;;;-7.61;91.57;100751.06;4992456;28;20519;-72
2022/12/14 05:21:02;;;;;;;41.00;19.77;;;;;;;-7.63;91.47;100744.22;5007861;28;20462;-72
2022/12/14 05:23:27;;;;;;;37.07;19.30;;;;;;;-7.60;92.04;100742.88;5007765;28;20194;-72
2022/12/14 05:25:53;;;;;;;42.17;18.67;;;;;;;-7.54;92.01;100743.44;4973955;28;20568;-72
2022/12/14 05:28:18;;;;;;;45.07;21.10;;;;;;;-7.56;92.26;100744.88;5008679;28;20207;-72
2022/12/14 05:30:44;;;;;;;37.20;19.27;;;;;;;-7.61;92.06;100738.66;5005451;28;20667;-73
2022/12/14 05:33:19;;;;;;;40.43;19.47;;;;;;;-7.69;92.17;100742.06;5008472;28;20693;-72
2022/12/14 05:35:45;;;;;;;37.20;18.90;;;;;;;-7.70;91.81;100741.97;5006516;28;20248;-72
2022/12/14 05:38:12;;;;;;;41.07;19.57;;;;;;;-7.71;91.91;100742.66;5006056;28;20454;-72
2022/12/14 05:40:38;;;;;;;41.33;18.33;;;;;;;-7.75;91.73;100738.16;5008446;28;20835;-72
2022/12/14 05:43:09;;;;;;;37.10;18.53;;;;;;;-7.76;91.52;100736.44;5007815;28;20485;-73
2022/12/14 05:45:35;;;;;;;40.33;18.83;;;;;;;-7.79;91.44;100727.09;5009284;28;20480;-72
2022/12/14 05:48:00;;;;;;;37.57;19.40;;;;;;;-7.87;90.94;100720.56;5005827;28;20478;-72
2022/12/14 05:50:26;;;;;;;38.00;19.60;;;;;;;-7.84;90.32;100720.84;4990811;28;20253;-72
2022/12/14 05:52:52;;;;;;;39.83;18.63;;;;;;;-7.86;90.80;100723.94;4997932;28;20760;-72
2022/12/14 05:55:17;;;;;;;39.97;19.67;;;;;;;-7.89;90.83;100718.69;5002877;28;22472;-72
2022/12/14 05:57:42;;;;;;;36.40;18.60;;;;;;;-7.90;90.39;100722.81;5008212;28;20677;-72
2022/12/14 06:00:10;;;;;;;37.67;19.53;;;;;;;-7.96;90.42;100721.38;5006953;28;20214;-72
2022/12/14 06:02:35;;;;;;;39.63;19.37;;;;;;;-7.98;90.48;100720.38;4968909;28;20242;-73
2022/12/14 06:05:01;;;;;;;35.07;18.80;;;;;;;-8.02;90.07;100718.38;4977447;28;20852;-72
2022/12/14 06:07:26;;;;;;;41.53;18.97;;;;;;;-8.05;90.13;100721.47;5008923;28;20183;-73
2022/12/14 06:09:51;;;;;;;37.53;19.10;;;;;;;-8.07;90.26;100717.09;5008323;28;20704;-72
2022/12/14 06:12:17;;;;;;;34.93;18.37;;;;;;;-8.08;89.88;100713.72;4996610;28;20569;-72
2022/12/14 06:14:42;;;;;;;37.30;19.73;;;;;;;-8.15;89.45;100720.50;5007575;28;20212;-72
2022/12/14 06:17:08;;;;;;;36.40;18.50;;;;;;;-8.17;89.36;100714.50;5003978;28;20297;-72
2022/12/14 06:19:33;;;;;;;40.77;18.60;;;;;;;-8.18;89.61;100726.06;5012738;28;20221;-72
2022/12/14 06:22:00;;;;;;;35.73;18.50;;;;;;;-8.21;89.29;100720.00;4991134;28;20205;-72
2022/12/14 06:24:25;;;;;;;38.23;19.03;;;;;;;-8.26;89.15;100718.69;5008313;28;20201;-72
2022/12/14 06:26:51;;;;;;;34.93;17.73;;;;;;;-8.25;88.92;100715.47;4997539;28;20456;-72
2022/12/14 06:29:18;;;;;;;37.63;19.17;;;;;;;-8.27;89.57;100711.97;5006440;28;20215;-72
2022/12/14 06:31:44;;;;;;;40.03;18.77;;;;;;;-8.32;89.29;100701.66;5006529;28;20198;-72
2022/12/14 06:34:10;;;;;;;41.87;19.50;;;;;;;-8.32;89.42;100704.13;4990992;28;20460;-73
2022/12/14 06:36:37;;;;;;;39.57;18.27;;;;;;;-8.33;89.67;100701.50;5008878;28;20201;-71
2022/12/14 06:39:10;;;;;;;33.20;17.70;;;;;;;-8.35;89.44;100705.44;4976230;28;20211;-72
2022/12/14 06:41:36;;;;;;;46.47;19.10;;;;;;;-8.40;89.51;100701.69;5006263;28;20568;-72
2022/12/14 06:44:07;;;;;;;33.47;18.87;;;;;;;-8.41;89.10;100698.34;4991793;28;20558;-71
2022/12/14 06:46:33;;;;;;;37.47;18.90;;;;;;;-8.41;89.25;100694.97;5001318;28;20444;-72
2022/12/14 06:48:58;;;;;;;32.93;17.97;;;;;;;-8.45;89.17;100703.75;4989150;28;20472;-72
2022/12/14 06:51:24;;;;;;;38.23;18.83;;;;;;;-8.45;89.23;100708.72;4983735;28;20442;-72
2022/12/14 06:53:51;;;;;;;40.83;19.43;;;;;;;-8.49;89.27;100700.84;4994228;28;20217;-72
2022/12/14 06:56:18;;;;;;;37.60;18.07;;;;;;;-8.48;89.03;100705.09;4990444;28;20464;-72
2022/12/14 06:58:44;;;;;;;38.73;18.67;;;;;;;-8.51;88.98;100704.81;4988134;28;20472;-72
2022/12/14 07:01:12;;;;;;;34.43;17.63;;;;;;;-8.53;89.16;100697.22;5004575;28;20448;-72
2022/12/14 07:03:38;;;;;;;37.50;17.83;;;;;;;-8.52;89.13;100698.13;4978404;28;20476;-72
2022/12/14 07:06:05;;;;;;;36.77;18.63;;;;;;;-8.55;89.20;100702.78;5006565;28;20429;-72
2022/12/14 07:08:33;;;;;;;36.13;17.20;;;;;;;-8.57;89.47;100706.75;4973868;28;20213;-72
2022/12/14 07:11:04;;;;;;;32.57;17.47;;;;;;;-8.58;89.26;100700.00;5005081;28;20444;-72
2022/12/14 07:13:30;;;;;;;36.43;18.57;;;;;;;-8.59;88.84;100700.75;5007109;28;20473;-72
2022/12/14 07:15:57;;;;;;;32.90;17.60;;;;;;;-8.60;89.53;100694.94;5006142;28;20531;-72
2022/12/14 07:18:22;;;;;;;38.23;17.67;;;;;;;-8.59;89.75;100704.13;4974469;28;20617;-72
2022/12/14 07:21:00;;;;;;;39.93;18.57;;;;;;;-8.59;89.65;100695.81;4989676;28;20552;-72
2022/12/14 07:23:27;;;;;;;38.33;18.37;;;;;;;-8.59;89.65;100693.31;5007415;28;20210;-72
2022/12/14 07:25:52;;;;;;;36.50;19.00;;;;;;;-8.61;89.71;100690.69;5001846;28;20548;-72
2022/12/14 07:28:19;;;;;;;39.20;19.00;;;;;;;-8.65;90.00;100680.38;5006098;28;20544;-72
2022/12/14 07:30:45;;;;;;;47.10;20.07;;;;;;;-8.62;90.20;100688.94;5006257;28;20189;-72
2022/12/14 07:33:10;;;;;;;43.03;20.37;;;;;;;-8.63;89.70;100691.28;4988675;28;20519;-72
2022/12/14 07:35:36;;;;;;;38.43;18.77;;;;;;;-8.63;89.55;100691.28;5004013;28;20891;-72
2022/12/14 07:38:02;;;;;;;39.27;18.63;;;;;;;-8.64;89.50;100685.47;4989972;28;20189;-72
2022/12/14 07:40:28;;;;;;;34.70;18.80;;;;;;;-8.67;89.92;100684.34;4990707;28;20202;-72
2022/12/14 07:42:54;;;;;;;35.70;18.63;;;;;;;-8.63;89.89;100694.66;4990657;28;20438;-72
2022/12/14 07:45:19;;;;;;;42.43;19.10;;;;;;;-8.60;89.84;100684.13;5005958;28;20200;-72
2022/12/14 07:47:45;;;;;;;36.50;18.30;;;;;;;-8.57;90.04;100686.91;4988886;28;20612;-72
2022/12/14 07:50:10;;;;;;;36.30;18.37;;;;;;;-8.54;90.09;100682.19;5004028;28;20234;-72
2022/12/14 07:52:36;;;;;;;39.43;18.43;;;;;;;-8.51;89.84;100685.84;5007239;28;20766;-72
2022/12/14 07:55:01;;;;;;;35.67;17.90;;;;;;;-8.49;90.52;100681.00;5002977;28;20248;-72
2022/12/14 07:57:26;;;;;;;37.13;18.70;;;;;;;-8.46;90.76;100687.13;5007150;28;20298;-72
2022/12/14 07:59:52;;;;;;;36.30;17.60;;;;;;;-8.39;91.15;100686.94;5009366;28;20297;-72
2022/12/14 08:02:17;;;;;;;38.70;19.17;;;;;;;-8.35;91.53;100688.06;5011563;28;20194;-72
2022/12/14 08:04:43;;;;;;;38.17;19.20;;;;;;;-8.32;91.62;100681.81;4994854;28;20225;-72
2022/12/14 08:07:08;;;;;;;36.93;17.97;;;;;;;-8.29;91.52;100674.59;4977889;28;20205;-72
2022/12/14 08:09:34;;;;;;;37.77;17.63;;;;;;;-8.24;91.18;100672.56;5008568;28;20630;-72
2022/12/14 08:11:59;;;;;;;39.10;18.93;;;;;;;-8.17;91.44;100669.81;5002869;28;20297;-72
2022/12/14 08:14:25;;;;;;;34.63;17.93;;;;;;;-8.13;91.62;100662.81;5008046;28;20209;-72
2022/12/14 08:16:50;;;;;;;38.33;18.10;;;;;;;-8.12;91.88;100666.13;5006013;28;20210;-72
2022/12/14 08:19:16;;;;;;;45.50;19.07;;;;;;;-8.07;92.44;100667.44;4989722;28;20254;-72
2022/12/14 08:21:44;;;;;;;39.10;19.47;;;;;;;-8.05;91.95;100664.38;4991475;28;20205;-72
2022/12/14 08:24:11;;;;;;;46.20;19.30;;;;;;;-8.02;91.50;100663.75;4988158;28;20449;-72
2022/12/14 08:26:37;;;;;;;44.83;19.57;;;;;;;-7.92;92.06;100663.81;5008280;28;20488;-72
2022/12/14 08:29:04;;;;;;;42.40;22.60;;;;;;;-7.81;92.80;100661.53;5005123;28;20473;-71
2022/12/14 08:31:30;;;;;;;42.33;22.97;;;;;;;-7.71;93.00;100665.66;4994502;28;20265;-73
2022/12/14 08:33:58;;;;;;;41.77;22.53;;;;;;;-7.67;93.55;100653.66;5011370;28;20473;-73
2022/12/14 08:36:28;;;;;;;43.13;23.87;;;;;;;-7.59;93.76;100656.81;5007046;28;20449;-73
2022/12/14 08:38:56;;;;;;;38.37;20.90;;;;;;;-7.51;94.16;100653.38;4983784;28;20476;-73
2022/12/14 08:41:23;;;;;;;36.73;20.07;;;;;;;-7.43;94.70;100652.38;5007748;28;20462;-73
2022/12/14 08:43:54;;;;;;;42.00;21.07;;;;;;;-7.40;94.63;100647.69;5010628;28;21147;-73
2022/12/14 08:46:20;;;;;;;39.47;21.00;;;;;;;-7.25;94.86;100644.00;4992067;28;20454;-73
2022/12/14 08:48:46;;;;;;;40.83;20.67;;;;;;;-7.25;94.51;100642.41;5006483;28;20586;-72
2022/12/14 08:51:12;;;;;;;40.93;20.03;;;;;;;-7.14;95.09;100646.66;5010940;28;20826;-72
2022/12/14 08:53:39;;;;;;;42.03;20.30;;;;;;;-7.06;95.13;100645.69;4993918;28;20556;-73
2022/12/14 08:56:10;;;;;;;36.73;18.60;;;;;;;-6.99;95.17;100647.09;4985554;28;20218;-72
2022/12/14 08:58:37;;;;;;;39.53;19.60;;;;;;;-6.91;95.26;100642.00;5008356;28;20472;-72
2022/12/14 09:01:05;;;;;;;41.23;19.30;;;;;;;-6.88;95.46;100646.34;5007955;28;20504;-72
2022/12/14 09:03:30;;;;;;;39.27;21.07;;;;;;;-6.78;95.66;100639.78;5009389;28;20515;-72
2022/12/14 09:05:59;;;;;;;35.33;19.47;;;;;;;-6.71;95.27;100628.72;5004155;28;20454;-72
2022/12/14 09:08:25;;;;;;;39.17;20.23;;;;;;;-6.66;94.84;100617.53;5007212;28;20763;-72
2022/12/14 09:10:51;;;;;;;36.73;19.87;;;;;;;-6.59;95.40;100628.13;4991589;28;20455;-72
2022/12/14 09:13:17;;;;;;;39.80;20.37;;;;;;;-6.52;95.23;100624.53;4978556;28;20222;-72
2022/12/14 09:15:42;;;;;;;37.93;19.57;;;;;;;-6.47;94.63;100618.28;5007771;28;20195;-73
2022/12/14 09:18:08;;;;;;;39.57;20.13;;;;;;;-6.42;94.47;100624.50;5009241;28;20459;-73
2022/12/14 09:20:33;;;;;;;37.73;21.73;;;;;;;-6.38;94.55;100629.00;5008875;28;20205;-73
2022/12/14 09:22:59;;;;;;;38.77;19.83;;;;;;;-6.35;94.88;100619.31;4990532;28;20266;-73
2022/12/14 09:25:24;;;;;;;33.07;18.97;;;;;;;-6.27;94.79;100621.66;4991947;28;20227;-73
2022/12/14 09:27:50;;;;;;;39.03;19.67;;;;;;;-6.20;94.87;100613.94;5004548;28;20198;-73
2022/12/14 09:30:15;;;;;;;37.93;20.03;;;;;;;-6.13;94.70;100612.81;5006259;28;20697;-74
2022/12/14 09:32:43;;;;;;;37.30;20.30;;;;;;;-6.06;94.63;100605.94;5006564;28;20218;-73
2022/12/14 09:35:09;;;;;;;42.63;20.60;;;;;;;-6.00;94.26;100613.00;5006930;28;20207;-73
2022/12/14 09:37:34;;;;;;;36.80;20.20;;;;;;;-5.97;94.17;100601.69;5010514;28;20507;-73
2022/12/14 09:39:59;;;;;;;37.13;19.60;;;;;;;-5.87;93.79;100613.25;4983784;28;20273;-73
2022/12/14 09:42:57;;;;;;;36.73;20.50;;;;;;;-5.73;93.48;100602.69;5008789;28;20952;-73
2022/12/14 09:45:39;;;;;;;37.67;18.70;;;;;;;-5.55;93.17;100607.50;5008710;28;20291;-73
2022/12/14 09:48:19;;;;;;;35.47;18.57;;;;;;;-5.36;92.61;100603.19;5006118;28;20457;-73
2022/12/14 09:50:48;;;;;;;36.33;17.63;;;;;;;-5.23;92.09;100603.38;5005947;28;20956;-74
2022/12/14 09:53:14;;;;;;;36.23;18.63;;;;;;;-5.04;90.95;100598.16;4989383;28;20490;-72
2022/12/14 09:55:45;;;;;;;36.27;18.13;;;;;;;-5.01;90.10;100593.41;4989733;28;20454;-73
2022/12/14 09:58:16;;;;;;;32.63;18.40;;;;;;;-4.60;89.69;100600.72;4991962;28;20469;-73
2022/12/14 10:00:51;;;;;;;34.67;17.97;;;;;;;-4.25;88.31;100589.19;4991163;28;20438;-74
2022/12/14 10:03:38;;;;;;;34.53;17.83;;;;;;;-4.34;86.81;100583.53;4992848;28;20445;-73
2022/12/14 10:06:31;;;;;;;33.83;19.03;;;;;;;-3.86;86.60;100581.19;4990858;28;20441;-73
2022/12/14 10:09:06;;;;;;;34.60;18.13;;;;;;;-3.94;85.05;100583.16;4989765;28;20475;-74
2022/12/14 10:11:44;;;;;;;34.53;17.53;;;;;;;-3.54;83.30;100571.81;5004145;28;20457;-74
2022/12/14 10:14:40;;;;;;;33.00;17.73;;;;;;;-3.26;82.19;100566.28;5001766;28;20456;-74
2022/12/14 10:17:40;;;;;;;25.87;15.77;;;;;;;-3.03;80.32;100561.22;5004669;28;21068;-73
2022/12/14 10:20:15;;;;;;;31.67;17.53;;;;;;;-2.59;79.81;100555.03;5003362;28;20485;-74
2022/12/14 10:22:46;;;;;;;29.37;16.07;;;;;;;-2.47;78.64;100553.34;5005789;28;20755;-73
2022/12/14 10:25:27;;;;;;;28.07;15.70;;;;;;;-1.93;77.18;100546.81;5015681;28;20466;-74
2022/12/14 10:28:07;;;;;;;27.33;16.60;;;;;;;0.87;72.98;100528.03;5011854;28;20199;-73
2022/12/14 10:30:34;;;;;;;28.10;15.73;;;;;;;4.47;56.87;100496.50;4995741;28;20615;-74
2022/12/14 10:33:19;;;;;;;26.27;14.73;;;;;;;4.77;51.27;100503.56;4989911;28;20223;-75
2022/12/14 10:35:55;;;;;;;25.20;14.87;;;;;;;1.80;57.37;100525.22;5005553;28;20207;-74
2022/12/14 10:38:28;;;;;;;23.27;14.53;;;;;;;0.72;61.70;100524.72;4985211;28;20225;-72
2022/12/14 10:41:03;;;;;;;26.13;15.87;;;;;;;0.28;64.03;100529.91;4972345;28;20207;-73
2022/12/14 10:43:37;;;;;;;31.50;16.90;;;;;;;0.33;64.44;100526.81;5006403;28;20318;-74
2022/12/14 10:46:09;;;;;;;27.60;16.27;;;;;;;0.41;64.74;100523.88;5004625;28;20676;-74
2022/12/14 10:48:58;;;;;;;26.87;15.83;;;;;;;0.61;65.20;100516.59;5009023;28;20346;-73
2022/12/14 10:51:36;;;;;;;25.50;15.73;;;;;;;0.81;63.49;100515.09;5005041;28;20222;-73
2022/12/14 10:54:01;;;;;;;26.40;15.67;;;;;;;0.99;62.86;100524.50;5005319;28;20234;-73
2022/12/14 10:56:31;;;;;;;25.13;15.17;;;;;;;2.02;61.72;100517.91;5003003;28;20697;-74
2022/12/14 10:59:19;;;;;;;26.73;15.30;;;;;;;2.30;59.96;100506.63;4991068;28;20218;-74
2022/12/14 11:01:48;;;;;;;24.73;15.00;;;;;;;5.47;53.49;100495.06;4978787;28;20195;-74
2022/12/14 11:04:28;;;;;;;25.27;16.33;;;;;;;9.20;41.44;100470.25;5007898;28;20202;-74
2022/12/14 11:06:56;;;;;;;24.03;16.20;;;;;;;10.10;39.73;100461.63;5006306;28;20202;-74
2022/12/14 11:09:23;;;;;;;22.77;15.67;;;;;;;11.23;37.38;100454.53;5008765;28;20222;-74
2022/12/14 11:11:57;;;;;;;21.17;16.00;;;;;;;11.54;36.47;100451.44;5002914;28;20587;-75
2022/12/14 11:14:23;;;;;;;22.40;16.50;;;;;;;10.15;36.92;100453.19;5007463;28;20657;-74
2022/12/14 11:16:49;;;;;;;23.30;16.83;;;;;;;9.95;38.25;100463.91;4987151;28;20254;-74
2022/12/14 11:19:18;;;;;;;22.10;16.20;;;;;;;10.71;37.50;100456.50;5000436;28;20207;-74
2022/12/14 11:21:44;;;;;;;23.77;16.80;;;;;;;10.58;37.68;100449.50;4989481;28;20187;-75
2022/12/14 11:24:23;;;;;;;23.07;17.43;;;;;;;8.93;39.66;100459.50;4983233;28;20658;-74
2022/12/14 11:26:52;;;;;;;23.50;17.00;;;;;;;8.76;39.59;100454.06;5008908;28;20253;-74
2022/12/14 11:29:27;;;;;;;22.87;16.93;;;;;;;8.89;40.24;100453.50;5004783;28;20222;-75
2022/12/14 11:31:52;;;;;;;23.00;17.07;;;;;;;9.17;39.77;100442.97;5007591;28;20190;-74
2022/12/14 11:34:25;;;;;;;22.50;16.93;;;;;;;10.01;38.86;100440.97;4991499;28;20202;-74
2022/12/14 11:36:51;;;;;;;25.10;17.70;;;;;;;9.27;40.03;100446.56;4993399;28;20252;-74
2022/12/14 11:39:24;;;;;;;21.97;16.17;;;;;;;9.86;38.66;100441.59;4989645;28;20215;-74